createdAt,value
2017-09-09T00:02:08.976Z,17.11
2017-09-09T00:04:35.203Z,17.09
2017-09-09T00:07:01.474Z,17.12
2017-09-09T00:09:27.681Z,17.07
2017-09-09T00:11:53.879Z,17.00
2017-09-09T00:14:20.147Z,17.03
2017-09-09T00:16:46.375Z,16.88
2017-09-09T00:19:12.600Z,16.86
2017-09-09T00:21:38.867Z,16.73
2017-09-09T00:24:05.086Z,16.68
2017-09-09T00:26:31.319Z,16.59
2017-09-09T00:28:57.590Z,16.54
2017-09-09T00:31:23.813Z,16.51
2017-09-09T00:33:50.024Z,16.31
2017-09-09T00:36:16.304Z,16.29
2017-09-09T00:38:42.504Z,16.08
2017-09-09T00:41:08.717Z,16.13
2017-09-09T00:43:34.997Z,16.01
2017-09-09T00:46:01.198Z,16.01
2017-09-09T00:48:27.388Z,16.07
2017-09-09T00:50:53.665Z,16.12
2017-09-09T00:53:19.882Z,16.12
2017-09-09T00:55:46.104Z,16.09
2017-09-09T00:58:12.426Z,16.03
2017-09-09T01:00:38.656Z,16.06
2017-09-09T01:03:04.882Z,16.06
2017-09-09T01:05:31.137Z,15.94
2017-09-09T01:07:57.350Z,15.99
2017-09-09T01:10:23.596Z,15.98
2017-09-09T01:12:49.872Z,16.03
2017-09-09T01:15:16.091Z,16.04
2017-09-09T01:17:42.306Z,16.04
2017-09-09T01:20:08.566Z,16.08
2017-09-09T01:22:34.924Z,16.21
2017-09-09T01:25:01.135Z,16.24
2017-09-09T01:27:27.400Z,16.36
2017-09-09T01:29:53.604Z,16.34
2017-09-09T01:32:19.835Z,16.31
2017-09-09T01:34:46.106Z,16.10
2017-09-09T01:37:12.331Z,16.07
2017-09-09T01:39:38.532Z,16.29
2017-09-09T01:42:04.810Z,16.35
2017-09-09T01:44:31.027Z,16.37
2017-09-09T01:46:57.255Z,16.39
2017-09-09T01:49:23.545Z,16.35
2017-09-09T01:51:49.864Z,16.33
2017-09-09T01:54:16.080Z,16.24
2017-09-09T01:56:42.412Z,16.12
2017-09-09T01:59:08.617Z,16.21
2017-09-09T02:01:34.835Z,16.22
2017-09-09T02:04:01.120Z,16.11
2017-09-09T02:06:27.353Z,16.22
2017-09-09T02:08:53.585Z,16.13
2017-09-09T02:11:19.865Z,16.06
2017-09-09T02:13:46.068Z,15.95
2017-09-09T02:16:12.284Z,15.86
2017-09-09T02:18:38.573Z,15.84
2017-09-09T02:21:04.799Z,15.78
2017-09-09T02:23:31.009Z,15.87
2017-09-09T02:25:57.282Z,15.79
2017-09-09T02:28:23.512Z,15.74
2017-09-09T02:30:49.944Z,15.62
2017-09-09T02:33:16.223Z,15.57
2017-09-09T02:35:42.436Z,15.69
2017-09-09T02:38:08.651Z,15.62
2017-09-09T02:40:34.932Z,15.60
2017-09-09T02:43:01.283Z,15.59
2017-09-09T02:45:27.504Z,15.50
2017-09-09T02:47:53.778Z,15.45
2017-09-09T02:50:20.000Z,15.40
2017-09-09T02:52:46.218Z,15.47
2017-09-09T02:55:12.502Z,15.29
2017-09-09T02:57:38.730Z,15.38
2017-09-09T03:00:04.955Z,15.48
2017-09-09T03:02:31.236Z,15.42
2017-09-09T03:04:57.475Z,15.37
2017-09-09T03:07:23.788Z,15.44
2017-09-09T03:09:50.196Z,15.44
2017-09-09T03:12:16.425Z,15.56
2017-09-09T03:14:42.652Z,15.38
2017-09-09T03:17:09.079Z,15.40
2017-09-09T03:19:35.326Z,15.43
2017-09-09T03:22:01.556Z,15.50
2017-09-09T03:24:27.829Z,15.43
2017-09-09T03:26:54.041Z,15.45
2017-09-09T03:29:20.260Z,15.44
2017-09-09T03:31:46.532Z,15.34
2017-09-09T03:34:12.760Z,15.30
2017-09-09T03:36:38.965Z,15.36
2017-09-09T03:39:05.245Z,15.33
2017-09-09T03:41:31.480Z,15.39
2017-09-09T03:43:57.700Z,15.60
2017-09-09T03:46:23.954Z,15.63
2017-09-09T03:48:50.184Z,15.51
2017-09-09T03:51:16.403Z,15.57
2017-09-09T03:53:42.662Z,15.58
2017-09-09T03:56:08.876Z,15.49
2017-09-09T03:58:35.100Z,15.57
2017-09-09T04:01:01.388Z,15.66
2017-09-09T04:03:27.614Z,15.67
2017-09-09T04:05:53.821Z,15.86
2017-09-09T04:08:20.088Z,16.34
2017-09-09T04:10:46.321Z,17.14
2017-09-09T04:13:12.529Z,17.79
2017-09-09T04:15:38.816Z,18.61
2017-09-09T04:18:05.047Z,19.23
2017-09-09T04:20:31.267Z,19.77
2017-09-09T04:22:57.495Z,20.30
2017-09-09T04:25:23.661Z,20.95
2017-09-09T04:27:49.839Z,20.81
2017-09-09T04:30:16.066Z,21.06
2017-09-09T04:32:42.294Z,21.53
2017-09-09T04:35:08.507Z,21.65
2017-09-09T04:37:34.782Z,21.40
2017-09-09T04:40:01.016Z,21.14
2017-09-09T04:42:27.246Z,21.88
2017-09-09T04:44:53.524Z,22.35
2017-09-09T04:47:19.734Z,23.27
2017-09-09T04:49:45.941Z,24.45
2017-09-09T04:52:12.192Z,25.57
2017-09-09T04:54:38.352Z,26.46
2017-09-09T04:57:04.521Z,27.32
2017-09-09T04:59:30.896Z,28.10
2017-09-09T05:01:57.117Z,28.73
2017-09-09T05:04:23.326Z,26.98
2017-09-09T05:06:49.558Z,25.77
2017-09-09T05:09:15.731Z,25.13
2017-09-09T05:11:41.915Z,24.76
2017-09-09T05:14:08.152Z,24.70
2017-09-09T05:16:34.455Z,24.35
2017-09-09T05:19:00.631Z,24.41
2017-09-09T05:21:26.898Z,26.02
2017-09-09T05:23:53.083Z,27.88
2017-09-09T05:26:19.266Z,29.42
2017-09-09T05:28:45.507Z,30.54
2017-09-09T05:31:11.675Z,31.18
2017-09-09T05:33:37.863Z,32.27
2017-09-09T05:36:04.098Z,33.01
2017-09-09T05:38:30.285Z,33.51
2017-09-09T05:40:56.473Z,33.58
2017-09-09T05:43:22.723Z,33.89
2017-09-09T05:45:48.930Z,34.48
2017-09-09T05:48:15.123Z,34.36
2017-09-09T05:50:41.374Z,34.72
2017-09-09T05:53:07.552Z,34.47
2017-09-09T05:55:33.748Z,34.88
2017-09-09T05:57:59.999Z,35.46
2017-09-09T06:00:26.183Z,36.53
2017-09-09T06:02:52.366Z,35.27
2017-09-09T06:05:18.607Z,35.73
2017-09-09T06:07:44.787Z,36.20
2017-09-09T06:10:10.958Z,35.02
2017-09-09T06:12:37.183Z,35.69
2017-09-09T06:15:03.357Z,35.11
2017-09-09T06:17:29.542Z,36.28
2017-09-09T06:19:55.808Z,37.61
2017-09-09T06:22:21.988Z,36.99
2017-09-09T06:24:48.146Z,36.92
2017-09-09T06:27:14.347Z,37.79
2017-09-09T06:29:40.510Z,37.73
2017-09-09T06:32:06.652Z,36.57
2017-09-09T06:34:32.879Z,34.97
2017-09-09T06:36:59.030Z,34.17
2017-09-09T06:39:25.218Z,34.20
2017-09-09T06:41:51.453Z,34.59
2017-09-09T06:44:17.637Z,34.30
2017-09-09T06:46:43.823Z,34.82
2017-09-09T06:49:10.051Z,35.95
2017-09-09T06:51:36.229Z,36.40
2017-09-09T06:54:02.394Z,33.98
2017-09-09T06:56:28.635Z,34.25
2017-09-09T06:58:54.831Z,34.00
2017-09-09T07:01:21.012Z,33.82
2017-09-09T07:03:47.244Z,33.75
2017-09-09T07:06:13.431Z,34.80
2017-09-09T07:08:39.599Z,36.51
2017-09-09T07:11:05.836Z,36.44
2017-09-09T07:13:32.042Z,35.62
2017-09-09T07:15:58.206Z,35.28
2017-09-09T07:18:24.453Z,36.33
2017-09-09T07:20:50.632Z,36.47
2017-09-09T07:23:16.824Z,37.07
2017-09-09T07:25:43.079Z,38.00
2017-09-09T07:28:09.249Z,37.06
2017-09-09T07:30:35.421Z,38.15
2017-09-09T07:33:01.652Z,37.22
2017-09-09T07:35:27.836Z,37.42
2017-09-09T07:37:54.040Z,37.70
2017-09-09T07:40:20.278Z,37.03
2017-09-09T07:42:46.463Z,35.84
2017-09-09T07:45:12.631Z,36.38
2017-09-09T07:47:38.870Z,35.89
2017-09-09T07:50:05.042Z,35.89
2017-09-09T07:52:31.211Z,35.88
2017-09-09T07:54:57.458Z,35.03
2017-09-09T07:57:23.632Z,35.10
2017-09-09T07:59:49.817Z,34.00
2017-09-09T08:02:16.042Z,34.91
2017-09-09T08:04:42.206Z,35.26
2017-09-09T08:07:08.376Z,33.99
2017-09-09T08:09:34.602Z,32.89
2017-09-09T08:12:00.783Z,33.50
2017-09-09T08:14:26.961Z,34.30
2017-09-09T08:16:53.205Z,34.08
2017-09-09T08:19:19.402Z,34.05
2017-09-09T08:21:45.593Z,34.22
2017-09-09T08:24:11.823Z,34.09
2017-09-09T08:26:37.990Z,33.60
2017-09-09T08:29:04.166Z,32.98
2017-09-09T08:31:30.413Z,33.63
2017-09-09T08:33:56.592Z,35.33
2017-09-09T08:36:22.778Z,36.05
2017-09-09T08:38:48.956Z,37.53
2017-09-09T08:41:15.139Z,38.26
2017-09-09T08:43:41.322Z,36.63
2017-09-09T08:46:07.488Z,37.81
2017-09-09T08:48:33.646Z,37.47
2017-09-09T08:50:59.820Z,37.37
2017-09-09T08:53:26.110Z,38.15
2017-09-09T08:55:52.278Z,37.41
2017-09-09T08:58:18.433Z,35.01
2017-09-09T09:00:44.614Z,35.04
2017-09-09T09:03:10.869Z,33.88
2017-09-09T09:05:37.092Z,33.35
2017-09-09T09:08:03.267Z,33.54
2017-09-09T09:10:29.464Z,33.07
2017-09-09T09:12:55.660Z,32.39
2017-09-09T09:15:21.978Z,31.72
2017-09-09T09:17:48.162Z,31.52
2017-09-09T09:20:14.395Z,31.35
2017-09-09T09:22:40.578Z,31.02
2017-09-09T09:25:06.746Z,30.86
2017-09-09T09:27:33.064Z,30.67
2017-09-09T09:29:59.229Z,30.66
2017-09-09T09:32:25.397Z,30.60
2017-09-09T09:34:51.610Z,30.74
2017-09-09T09:37:17.796Z,30.77
2017-09-09T09:39:43.981Z,30.77
2017-09-09T09:42:10.254Z,30.65
2017-09-09T09:44:36.424Z,30.31
2017-09-09T09:47:02.609Z,30.30
2017-09-09T09:49:28.963Z,30.27
2017-09-09T09:51:55.145Z,30.18
2017-09-09T09:54:21.317Z,30.19
2017-09-09T09:56:47.549Z,30.07
2017-09-09T09:59:13.728Z,30.42
2017-09-09T10:01:39.898Z,30.42
2017-09-09T10:04:06.121Z,30.62
2017-09-09T10:06:32.300Z,31.34
2017-09-09T10:08:58.480Z,32.39
2017-09-09T10:11:24.723Z,32.95
2017-09-09T10:13:50.881Z,32.71
2017-09-09T10:16:17.064Z,32.32
2017-09-09T10:18:43.280Z,33.42
2017-09-09T10:21:09.440Z,33.86
2017-09-09T10:23:35.646Z,34.52
2017-09-09T10:26:01.882Z,35.18
2017-09-09T10:28:28.045Z,36.08
2017-09-09T10:30:54.211Z,35.61
2017-09-09T10:33:20.441Z,36.71
2017-09-09T10:35:46.600Z,37.35
2017-09-09T10:38:12.758Z,36.91
2017-09-09T10:40:38.988Z,37.01
2017-09-09T10:43:05.173Z,37.05
2017-09-09T10:45:31.330Z,36.35
2017-09-09T10:47:57.543Z,35.95
2017-09-09T10:50:23.716Z,36.73
2017-09-09T10:52:49.884Z,37.29
2017-09-09T10:55:16.139Z,37.80
2017-09-09T10:57:42.321Z,37.47
2017-09-09T11:00:08.499Z,37.96
2017-09-09T11:02:34.747Z,38.24
2017-09-09T11:05:01.031Z,39.00
2017-09-09T11:07:27.189Z,39.25
2017-09-09T11:09:53.426Z,37.98
2017-09-09T11:12:19.615Z,36.09
2017-09-09T11:14:45.773Z,36.55
2017-09-09T11:17:12.015Z,36.44
2017-09-09T11:19:38.174Z,37.49
2017-09-09T11:22:04.400Z,38.14
2017-09-09T11:24:30.591Z,37.48
2017-09-09T11:26:56.830Z,37.17
2017-09-09T11:29:23.084Z,37.20
2017-09-09T11:31:49.264Z,36.11
2017-09-09T11:34:15.451Z,35.56
2017-09-09T11:36:41.708Z,37.06
2017-09-09T11:39:07.889Z,37.90
2017-09-09T11:41:34.074Z,38.33
2017-09-09T11:44:00.321Z,38.79
2017-09-09T11:46:26.490Z,37.99
2017-09-09T11:48:52.673Z,36.77
2017-09-09T11:51:18.874Z,36.93
2017-09-09T11:53:45.030Z,37.52
2017-09-09T11:56:11.211Z,37.56
2017-09-09T11:58:37.463Z,38.02
2017-09-09T12:01:03.609Z,38.92
2017-09-09T12:03:29.792Z,38.83
2017-09-09T12:05:56.131Z,38.56
2017-09-09T12:08:22.293Z,38.43
2017-09-09T12:10:48.486Z,38.33
2017-09-09T12:13:14.760Z,37.51
2017-09-09T12:15:40.925Z,37.36
2017-09-09T12:18:07.777Z,38.02
2017-09-09T12:20:34.809Z,38.45
2017-09-09T12:23:01.110Z,38.91
2017-09-09T12:25:27.301Z,38.84
2017-09-09T12:27:53.673Z,38.12
2017-09-09T12:30:19.862Z,38.09
2017-09-09T12:32:46.046Z,37.24
2017-09-09T12:35:12.269Z,35.56
2017-09-09T12:37:38.458Z,35.08
2017-09-09T12:40:04.627Z,34.13
2017-09-09T12:42:30.869Z,33.66
2017-09-09T12:44:57.052Z,33.62
2017-09-09T12:47:23.428Z,33.53
2017-09-09T12:49:49.731Z,33.43
2017-09-09T12:52:15.955Z,33.26
2017-09-09T12:54:42.104Z,33.00
2017-09-09T12:57:08.352Z,33.34
2017-09-09T12:59:34.577Z,33.68
2017-09-09T13:02:00.852Z,33.55
2017-09-09T13:04:27.101Z,33.26
2017-09-09T13:06:53.261Z,33.25
2017-09-09T13:09:19.432Z,33.56
2017-09-09T13:11:45.696Z,33.65
2017-09-09T13:14:11.861Z,33.70
2017-09-09T13:16:38.081Z,33.71
2017-09-09T13:19:04.301Z,33.67
2017-09-09T13:21:30.511Z,33.24
2017-09-09T13:23:56.704Z,32.97
2017-09-09T13:26:22.917Z,32.90
2017-09-09T13:28:49.094Z,32.68
2017-09-09T13:31:15.269Z,32.57
2017-09-09T13:33:41.452Z,32.55
2017-09-09T13:36:07.625Z,32.61
2017-09-09T13:38:33.804Z,32.45
2017-09-09T13:41:00.074Z,32.55
2017-09-09T13:43:26.229Z,32.46
2017-09-09T13:45:52.435Z,32.41
2017-09-09T13:48:18.717Z,32.46
2017-09-09T13:50:45.908Z,32.46
2017-09-09T13:53:12.084Z,32.36
2017-09-09T13:55:38.292Z,32.37
2017-09-09T13:58:04.489Z,32.27
2017-09-09T14:00:30.791Z,32.15
2017-09-09T14:02:57.024Z,32.10
2017-09-09T14:05:23.192Z,31.95
2017-09-09T14:07:49.348Z,32.08
2017-09-09T14:10:15.579Z,31.94
2017-09-09T14:12:41.724Z,31.86
2017-09-09T14:15:07.881Z,31.72
2017-09-09T14:17:34.091Z,31.82
2017-09-09T14:20:00.253Z,32.00
2017-09-09T14:22:26.406Z,32.03
2017-09-09T14:24:52.611Z,32.09
2017-09-09T14:27:18.779Z,32.20
2017-09-09T14:29:44.933Z,32.26
2017-09-09T14:32:11.168Z,32.36
2017-09-09T14:34:37.341Z,32.56
2017-09-09T14:37:03.525Z,32.74
2017-09-09T14:39:29.764Z,32.86
2017-09-09T14:41:55.925Z,32.90
2017-09-09T14:44:22.097Z,32.84
2017-09-09T14:46:48.314Z,32.72
2017-09-09T14:49:14.468Z,32.58
2017-09-09T14:51:41.301Z,32.45
2017-09-09T14:54:07.515Z,32.33
2017-09-09T14:56:33.680Z,32.16
2017-09-09T14:58:59.850Z,32.07
2017-09-09T15:01:26.063Z,31.94
2017-09-09T15:03:52.251Z,31.82
2017-09-09T15:06:18.420Z,31.64
2017-09-09T15:08:44.622Z,31.36
2017-09-09T15:11:10.798Z,31.09
2017-09-09T15:13:37.040Z,30.80
2017-09-09T15:16:03.250Z,30.39
2017-09-09T15:18:29.420Z,30.25
2017-09-09T15:20:55.582Z,30.14
2017-09-09T15:23:21.799Z,30.09
2017-09-09T15:25:47.975Z,29.99
2017-09-09T15:28:14.153Z,30.01
2017-09-09T15:30:40.384Z,29.84
2017-09-09T15:33:06.561Z,29.59
2017-09-09T15:35:32.724Z,29.45
2017-09-09T15:37:58.935Z,29.21
2017-09-09T15:40:25.108Z,29.21
2017-09-09T15:45:22.766Z,28.88
2017-09-09T15:47:48.935Z,28.80
2017-09-09T15:50:15.159Z,28.64
2017-09-09T15:52:41.388Z,28.57
2017-09-09T15:55:07.577Z,28.51
2017-09-09T15:57:33.760Z,28.35
2017-09-09T16:00:00.076Z,28.13
2017-09-09T16:02:26.248Z,28.04
2017-09-09T16:04:52.430Z,27.97
2017-09-09T16:07:18.638Z,27.81
2017-09-09T16:09:44.811Z,27.62
2017-09-09T16:12:10.972Z,27.23
2017-09-09T16:14:37.214Z,27.17
2017-09-09T16:17:03.379Z,27.17
2017-09-09T16:19:29.549Z,26.82
2017-09-09T16:21:55.805Z,26.14
2017-09-09T16:24:21.987Z,25.16
2017-09-09T16:26:48.153Z,24.55
2017-09-09T16:29:14.379Z,24.15
2017-09-09T16:31:40.559Z,23.52
2017-09-09T16:34:06.753Z,22.89
2017-09-09T16:36:32.978Z,22.36
2017-09-09T16:38:59.176Z,22.11
2017-09-09T16:41:25.441Z,21.92
2017-09-09T16:43:51.708Z,21.79
2017-09-09T16:46:17.905Z,21.83
2017-09-09T16:48:44.095Z,21.74
2017-09-09T16:51:10.259Z,21.70
2017-09-09T16:53:36.417Z,21.54
2017-09-09T16:56:02.835Z,21.37
2017-09-09T16:58:29.906Z,21.25
2017-09-09T17:00:56.055Z,21.22
2017-09-09T17:03:22.268Z,21.11
2017-09-09T17:05:48.451Z,21.03
2017-09-09T17:08:14.634Z,21.01
2017-09-09T17:10:40.840Z,21.03
2017-09-09T17:13:07.018Z,21.03
2017-09-09T17:15:33.173Z,21.03
2017-09-09T17:17:59.466Z,20.99
2017-09-09T17:20:25.637Z,20.92
2017-09-09T17:22:51.815Z,20.93
2017-09-09T17:25:18.055Z,21.06
2017-09-09T17:27:44.393Z,21.06
2017-09-09T17:30:10.568Z,21.00
2017-09-09T17:32:36.779Z,20.97
2017-09-09T17:35:02.934Z,20.91
2017-09-09T17:37:29.113Z,20.84
2017-09-09T17:39:55.357Z,20.84
2017-09-09T17:42:21.522Z,20.80
2017-09-09T17:44:47.789Z,20.77
2017-09-09T17:47:14.044Z,20.73
2017-09-09T17:49:40.234Z,20.67
2017-09-09T17:52:06.415Z,20.62
2017-09-09T17:54:32.707Z,20.57
2017-09-09T17:56:58.869Z,20.57
2017-09-09T17:59:25.041Z,20.50
2017-09-09T18:01:51.264Z,20.45
2017-09-09T18:04:17.430Z,20.47
2017-09-09T18:06:43.596Z,20.58
2017-09-09T18:09:09.819Z,20.59
2017-09-09T18:11:35.992Z,20.62
2017-09-09T18:14:02.158Z,20.60
2017-09-09T18:16:28.373Z,20.64
2017-09-09T18:18:54.593Z,20.59
2017-09-09T18:21:20.819Z,20.56
2017-09-09T18:23:47.055Z,20.46
2017-09-09T18:26:13.198Z,20.41
2017-09-09T18:28:39.353Z,20.45
2017-09-09T18:31:05.564Z,20.47
2017-09-09T18:33:31.734Z,20.39
2017-09-09T18:35:57.908Z,20.43
2017-09-09T18:38:24.109Z,20.43
2017-09-09T18:40:50.265Z,20.47
2017-09-09T18:43:16.428Z,20.58
2017-09-09T18:45:42.654Z,20.48
2017-09-09T18:48:08.807Z,20.49
2017-09-09T18:50:34.955Z,20.49
2017-09-09T18:53:01.223Z,20.47
2017-09-09T18:55:27.361Z,20.48
2017-09-09T18:57:53.502Z,20.47
2017-09-09T19:00:19.720Z,20.43
2017-09-09T19:02:45.869Z,20.48
2017-09-09T19:05:12.034Z,20.41
2017-09-09T19:07:38.285Z,20.39
2017-09-09T19:10:04.446Z,20.34
2017-09-09T19:12:30.621Z,20.27
2017-09-09T19:14:56.844Z,20.28
2017-09-09T19:17:23.014Z,20.30
2017-09-09T19:19:49.195Z,20.30
2017-09-09T19:22:15.463Z,20.31
2017-09-09T19:24:41.665Z,20.15
2017-09-09T19:27:07.820Z,20.02
2017-09-09T19:29:34.040Z,19.97
2017-09-09T19:32:00.191Z,19.86
2017-09-09T19:34:26.330Z,19.79
2017-09-09T19:36:52.549Z,19.78
2017-09-09T19:39:18.716Z,19.76
2017-09-09T19:41:44.906Z,19.78
2017-09-09T19:44:11.126Z,19.75
2017-09-09T19:46:37.321Z,19.68
2017-09-09T19:49:03.532Z,19.66
2017-09-09T19:51:29.764Z,19.62
2017-09-09T19:53:55.948Z,19.55
2017-09-09T19:58:54.904Z,19.41
2017-09-09T20:01:21.075Z,19.45
2017-09-09T20:03:47.238Z,19.41
2017-09-09T20:06:13.479Z,19.37
2017-09-09T20:08:39.649Z,19.37
2017-09-09T20:11:05.910Z,19.40
2017-09-09T20:13:32.140Z,19.40
2017-09-09T20:15:58.350Z,19.42
2017-09-09T20:18:24.516Z,19.36
2017-09-09T20:20:50.734Z,19.34
2017-09-09T20:23:16.905Z,19.31
2017-09-09T20:25:43.082Z,19.37
2017-09-09T20:28:09.278Z,19.40
2017-09-09T20:30:35.442Z,19.41
2017-09-09T20:33:01.603Z,19.35
2017-09-09T20:35:27.818Z,19.38
2017-09-09T20:37:53.993Z,19.33
2017-09-09T20:40:20.185Z,19.39
2017-09-09T20:42:46.416Z,19.36
2017-09-09T20:45:12.581Z,19.33
2017-09-09T20:47:38.756Z,19.35
2017-09-09T20:50:05.002Z,19.38
2017-09-09T20:52:31.185Z,19.40
2017-09-09T20:54:57.351Z,19.45
2017-09-09T20:57:23.584Z,19.49
2017-09-09T20:59:49.754Z,19.50
2017-09-09T21:02:15.932Z,19.55
2017-09-09T21:04:42.141Z,19.46
2017-09-09T21:07:08.304Z,19.41
2017-09-09T21:09:34.463Z,19.38
2017-09-09T21:12:00.690Z,19.35
2017-09-09T21:14:26.854Z,19.43
2017-09-09T21:16:53.034Z,19.49
2017-09-09T21:19:19.257Z,19.46
2017-09-09T21:21:45.430Z,19.49
2017-09-09T21:24:11.598Z,19.53
2017-09-09T21:26:37.817Z,19.48
2017-09-09T21:29:04.007Z,19.48
2017-09-09T21:31:30.191Z,19.51
2017-09-09T21:33:56.401Z,19.52
2017-09-09T21:36:22.569Z,19.52
2017-09-09T21:38:48.804Z,19.53
2017-09-09T21:41:15.156Z,19.51
2017-09-09T21:43:41.443Z,19.53
2017-09-09T21:46:07.652Z,19.46
2017-09-09T21:48:33.857Z,19.50
2017-09-09T21:51:00.015Z,19.45
2017-09-09T21:53:26.164Z,19.46
2017-09-09T21:55:52.379Z,19.43
2017-09-09T21:58:18.542Z,19.44
2017-09-09T22:00:44.698Z,19.45
2017-09-09T22:03:10.941Z,19.50
2017-09-09T22:05:37.107Z,19.40
2017-09-09T22:08:03.262Z,19.35
2017-09-09T22:10:29.470Z,19.33
2017-09-09T22:12:55.641Z,19.28
2017-09-09T22:15:21.795Z,19.27
2017-09-09T22:17:48.000Z,19.24
2017-09-09T22:20:14.161Z,19.23
2017-09-09T22:22:40.334Z,19.17
2017-09-09T22:25:06.560Z,19.13
2017-09-09T22:27:32.728Z,19.09
2017-09-09T22:29:58.909Z,19.09
2017-09-09T22:32:25.176Z,19.08
2017-09-09T22:34:51.344Z,19.07
2017-09-09T22:39:50.157Z,19.12
2017-09-09T22:42:16.320Z,19.15
2017-09-09T22:44:42.493Z,19.11
2017-09-09T22:47:08.751Z,19.06
2017-09-09T22:49:34.923Z,19.15
2017-09-09T22:52:01.087Z,19.14
2017-09-09T22:54:27.321Z,19.16
2017-09-09T22:56:53.485Z,19.19
2017-09-09T22:59:19.650Z,19.21
2017-09-09T23:01:45.870Z,19.24
2017-09-09T23:04:12.045Z,19.18
2017-09-09T23:06:38.211Z,19.18
2017-09-09T23:09:04.432Z,19.14
2017-09-09T23:11:30.595Z,19.12
2017-09-09T23:13:56.740Z,19.14
2017-09-09T23:16:22.970Z,19.13
2017-09-09T23:18:49.191Z,19.10
2017-09-09T23:21:15.363Z,19.04
2017-09-09T23:23:41.586Z,18.97
2017-09-09T23:26:07.741Z,18.91
2017-09-09T23:28:33.902Z,18.96
2017-09-09T23:31:00.105Z,18.92
2017-09-09T23:33:26.261Z,18.94
2017-09-09T23:35:52.437Z,18.93
2017-09-09T23:38:18.655Z,18.88
2017-09-09T23:40:44.835Z,18.85
2017-09-09T23:43:11.006Z,18.83
2017-09-09T23:45:37.245Z,18.93
2017-09-09T23:48:03.417Z,19.02
2017-09-09T23:50:29.598Z,19.01
2017-09-09T23:52:55.829Z,19.00
2017-09-09T23:55:22.009Z,19.04
2017-09-09T23:57:48.170Z,19.01
